Terminal Aerodrome Forecast
Issued by NWS

Home | Current Version | Previous Version | Text Only | Print | Product List | Glossary On
Versions: 1 2 3 4 5 6 7 8 9 10 11 12 13 14 15 16 17 18 19 20 21 22 23 24 25 26 27 28 29
000
FTUS41 KILN 012200 AAA
TAFLCK
TAF AMD
KLCK 012224Z 0122/0218 14012G18KT 5SM -RA BR OVC025
     FM020000 17012KT 4SM -RA BR OVC006
      TEMPO 0200/0204 1SM RA BR OVC004
     FM020500 21010KT P6SM VCSH OVC006
     FM020900 31015G25KT P6SM VCSH OVC012
     FM021400 32015G25KT P6SM OVC015=

USA.gov is the U.S. government's official web portal to all federal, state and local government web resources and services.